sensor_id;sensor_type;location;lat;lon;timestamp;pressure;altitude;pressure_sealevel;temperature;humidity
11049;BME280;5577;42.706;23.160;2022-08-16T00:02:16;93738.00;;;19.82;100.00
11049;BME280;5577;42.706;23.160;2022-08-16T00:05:02;93739.41;;;19.86;100.00
11049;BME280;5577;42.706;23.160;2022-08-16T00:07:47;93740.31;;;19.79;100.00
11049;BME280;5577;42.706;23.160;2022-08-16T00:10:32;93727.56;;;19.64;100.00
11049;BME280;5577;42.706;23.160;2022-08-16T00:13:16;93731.75;;;19.65;100.00
11049;BME280;5577;42.706;23.160;2022-08-16T00:16:01;93700.28;;;19.46;100.00
11049;BME280;5577;42.706;23.160;2022-08-16T00:18:46;93727.06;;;19.69;100.00
11049;BME280;5577;42.706;23.160;2022-08-16T00:21:30;93731.72;;;19.68;100.00
11049;BME280;5577;42.706;23.160;2022-08-16T00:24:15;93735.56;;;19.67;100.00
11049;BME280;5577;42.706;23.160;2022-08-16T00:27:01;93740.19;;;19.67;100.00
11049;BME280;5577;42.706;23.160;2022-08-16T00:29:46;93748.28;;;19.63;100.00
11049;BME280;5577;42.706;23.160;2022-08-16T00:32:30;93738.78;;;19.59;100.00
11049;BME280;5577;42.706;23.160;2022-08-16T00:35:18;93745.69;;;19.60;100.00
11049;BME280;5577;42.706;23.160;2022-08-16T00:38:04;93744.84;;;19.63;100.00
11049;BME280;5577;42.706;23.160;2022-08-16T00:40:51;93752.63;;;19.57;100.00
11049;BME280;5577;42.706;23.160;2022-08-16T00:43:35;93767.59;;;19.78;100.00
11049;BME280;5577;42.706;23.160;2022-08-16T00:46:25;93757.78;;;19.68;100.00
11049;BME280;5577;42.706;23.160;2022-08-16T00:49:12;93767.81;;;19.67;100.00
11049;BME280;5577;42.706;23.160;2022-08-16T00:51:56;93773.72;;;19.78;100.00
11049;BME280;5577;42.706;23.160;2022-08-16T00:54:40;93768.41;;;19.75;100.00
11049;BME280;5577;42.706;23.160;2022-08-16T00:57:26;93772.56;;;19.79;100.00
11049;BME280;5577;42.706;23.160;2022-08-16T01:00:10;93786.34;;;19.82;100.00
11049;BME280;5577;42.706;23.160;2022-08-16T01:02:57;93782.88;;;19.81;100.00
11049;BME280;5577;42.706;23.160;2022-08-16T01:05:42;93773.22;;;19.64;100.00
11049;BME280;5577;42.706;23.160;2022-08-16T01:08:27;93777.16;;;19.79;100.00
11049;BME280;5577;42.706;23.160;2022-08-16T01:11:12;93786.06;;;19.53;100.00
11049;BME280;5577;42.706;23.160;2022-08-16T01:14:02;93786.59;;;19.67;100.00
11049;BME280;5577;42.706;23.160;2022-08-16T01:16:48;93792.25;;;19.73;100.00
11049;BME280;5577;42.706;23.160;2022-08-16T01:19:43;93797.28;;;19.48;100.00
11049;BME280;5577;42.706;23.160;2022-08-16T01:25:46;93803.63;;;19.34;100.00
11049;BME280;5577;42.706;23.160;2022-08-16T01:28:32;93782.69;;;19.26;100.00
11049;BME280;5577;42.706;23.160;2022-08-16T01:31:17;93803.81;;;19.47;100.00
11049;BME280;5577;42.706;23.160;2022-08-16T01:34:05;93809.34;;;19.59;100.00
11049;BME280;5577;42.706;23.160;2022-08-16T01:37:00;93810.88;;;19.60;100.00
11049;BME280;5577;42.706;23.160;2022-08-16T01:39:45;93807.84;;;19.58;100.00
11049;BME280;5577;42.706;23.160;2022-08-16T01:42:29;93812.28;;;19.68;100.00
11049;BME280;5577;42.706;23.160;2022-08-16T01:45:14;93814.28;;;19.64;100.00
11049;BME280;5577;42.706;23.160;2022-08-16T01:47:58;93812.97;;;19.72;100.00
11049;BME280;5577;42.706;23.160;2022-08-16T01:50:43;93805.09;;;19.62;100.00
11049;BME280;5577;42.706;23.160;2022-08-16T01:53:28;93820.34;;;19.68;100.00
11049;BME280;5577;42.706;23.160;2022-08-16T01:56:13;93809.50;;;19.72;100.00
11049;BME280;5577;42.706;23.160;2022-08-16T01:58:58;93819.03;;;19.76;100.00
11049;BME280;5577;42.706;23.160;2022-08-16T02:01:45;93835.84;;;19.80;100.00
11049;BME280;5577;42.706;23.160;2022-08-16T02:04:31;93845.72;;;19.87;100.00
11049;BME280;5577;42.706;23.160;2022-08-16T02:07:16;93847.88;;;19.72;100.00
11049;BME280;5577;42.706;23.160;2022-08-16T02:10:01;93856.59;;;19.57;100.00
11049;BME280;5577;42.706;23.160;2022-08-16T02:12:46;93853.94;;;19.30;100.00
11049;BME280;5577;42.706;23.160;2022-08-16T02:15:34;93889.94;;;19.33;100.00
11049;BME280;5577;42.706;23.160;2022-08-16T02:18:18;93896.38;;;19.39;100.00
11049;BME280;5577;42.706;23.160;2022-08-16T02:21:02;93885.22;;;19.14;100.00
11049;BME280;5577;42.706;23.160;2022-08-16T02:23:47;93898.63;;;18.84;100.00
11049;BME280;5577;42.706;23.160;2022-08-16T02:26:31;93908.16;;;18.88;100.00
11049;BME280;5577;42.706;23.160;2022-08-16T02:29:16;93911.16;;;18.94;100.00
11049;BME280;5577;42.706;23.160;2022-08-16T02:32:04;93906.66;;;18.87;100.00
11049;BME280;5577;42.706;23.160;2022-08-16T02:34:49;93915.75;;;18.93;100.00
11049;BME280;5577;42.706;23.160;2022-08-16T02:37:33;93924.22;;;18.58;100.00
11049;BME280;5577;42.706;23.160;2022-08-16T02:40:18;93896.34;;;18.82;100.00
11049;BME280;5577;42.706;23.160;2022-08-16T02:43:03;93913.13;;;18.90;100.00
11049;BME280;5577;42.706;23.160;2022-08-16T02:45:47;93912.97;;;19.00;100.00
11049;BME280;5577;42.706;23.160;2022-08-16T02:48:31;93916.75;;;19.06;100.00
11049;BME280;5577;42.706;23.160;2022-08-16T02:51:16;93889.28;;;18.95;100.00
11049;BME280;5577;42.706;23.160;2022-08-16T02:54:00;93920.34;;;19.23;100.00
11049;BME280;5577;42.706;23.160;2022-08-16T02:56:44;93913.44;;;19.25;100.00
11049;BME280;5577;42.706;23.160;2022-08-16T02:59:29;93909.94;;;19.28;100.00
11049;BME280;5577;42.706;23.160;2022-08-16T03:02:13;93902.63;;;19.32;100.00
11049;BME280;5577;42.706;23.160;2022-08-16T03:04:57;93892.28;;;19.31;100.00
11049;BME280;5577;42.706;23.160;2022-08-16T03:07:41;93851.34;;;18.97;100.00
11049;BME280;5577;42.706;23.160;2022-08-16T03:10:26;93875.78;;;19.02;100.00
11049;BME280;5577;42.706;23.160;2022-08-16T03:13:11;93879.19;;;19.06;100.00
11049;BME280;5577;42.706;23.160;2022-08-16T03:15:55;93878.38;;;19.09;100.00
11049;BME280;5577;42.706;23.160;2022-08-16T03:18:40;93874.91;;;19.09;100.00
11049;BME280;5577;42.706;23.160;2022-08-16T03:21:24;93885.94;;;19.14;100.00
11049;BME280;5577;42.706;23.160;2022-08-16T03:24:08;93893.25;;;19.14;100.00
11049;BME280;5577;42.706;23.160;2022-08-16T03:26:54;93897.81;;;19.17;100.00
11049;BME280;5577;42.706;23.160;2022-08-16T03:29:38;93900.63;;;19.06;100.00
11049;BME280;5577;42.706;23.160;2022-08-16T03:32:22;93897.16;;;19.09;100.00
11049;BME280;5577;42.706;23.160;2022-08-16T03:35:07;93881.97;;;18.99;100.00
11049;BME280;5577;42.706;23.160;2022-08-16T03:37:53;93904.00;;;19.14;100.00
11049;BME280;5577;42.706;23.160;2022-08-16T03:40:39;93901.50;;;19.00;100.00
11049;BME280;5577;42.706;23.160;2022-08-16T03:43:24;93880.53;;;18.91;100.00
11049;BME280;5577;42.706;23.160;2022-08-16T03:46:10;93888.69;;;18.84;100.00
11049;BME280;5577;42.706;23.160;2022-08-16T03:48:54;93873.78;;;18.80;100.00
11049;BME280;5577;42.706;23.160;2022-08-16T03:51:41;93885.69;;;18.79;100.00
11049;BME280;5577;42.706;23.160;2022-08-16T03:54:25;93869.94;;;18.81;100.00
11049;BME280;5577;42.706;23.160;2022-08-16T03:57:09;93879.13;;;18.83;100.00
11049;BME280;5577;42.706;23.160;2022-08-16T03:59:53;93887.56;;;18.82;100.00
11049;BME280;5577;42.706;23.160;2022-08-16T04:02:38;93883.34;;;18.81;100.00
11049;BME280;5577;42.706;23.160;2022-08-16T04:05:23;93881.84;;;18.80;100.00
11049;BME280;5577;42.706;23.160;2022-08-16T04:08:08;93832.44;;;18.47;100.00
11049;BME280;5577;42.706;23.160;2022-08-16T04:10:53;93878.84;;;18.74;100.00
11049;BME280;5577;42.706;23.160;2022-08-16T04:13:37;93839.75;;;18.47;100.00
11049;BME280;5577;42.706;23.160;2022-08-16T04:16:21;93872.81;;;18.67;100.00
11049;BME280;5577;42.706;23.160;2022-08-16T04:19:05;93869.09;;;18.57;100.00
11049;BME280;5577;42.706;23.160;2022-08-16T04:21:50;93870.59;;;18.58;100.00
11049;BME280;5577;42.706;23.160;2022-08-16T04:24:34;93871.38;;;18.59;100.00
11049;BME280;5577;42.706;23.160;2022-08-16T04:27:19;93865.53;;;18.67;100.00
11049;BME280;5577;42.706;23.160;2022-08-16T04:30:09;93862.81;;;18.71;100.00
11049;BME280;5577;42.706;23.160;2022-08-16T04:32:54;93835.72;;;18.62;100.00
11049;BME280;5577;42.706;23.160;2022-08-16T04:35:39;93857.69;;;18.80;100.00
11049;BME280;5577;42.706;23.160;2022-08-16T04:38:24;93868.25;;;18.94;100.00
11049;BME280;5577;42.706;23.160;2022-08-16T04:41:08;93871.28;;;18.96;100.00
11049;BME280;5577;42.706;23.160;2022-08-16T04:43:52;93865.22;;;18.92;100.00
11049;BME280;5577;42.706;23.160;2022-08-16T04:46:36;93861.84;;;18.84;100.00
11049;BME280;5577;42.706;23.160;2022-08-16T04:49:20;93870.59;;;18.92;100.00
11049;BME280;5577;42.706;23.160;2022-08-16T04:52:05;93867.38;;;19.00;100.00
11049;BME280;5577;42.706;23.160;2022-08-16T04:54:49;93871.44;;;19.12;100.00
11049;BME280;5577;42.706;23.160;2022-08-16T04:57:33;93884.00;;;19.18;100.00
11049;BME280;5577;42.706;23.160;2022-08-16T05:00:20;93890.31;;;19.35;100.00
11049;BME280;5577;42.706;23.160;2022-08-16T05:03:08;93881.47;;;19.34;100.00
11049;BME280;5577;42.706;23.160;2022-08-16T05:05:53;93883.72;;;19.39;100.00
11049;BME280;5577;42.706;23.160;2022-08-16T05:08:37;93898.38;;;19.31;100.00
11049;BME280;5577;42.706;23.160;2022-08-16T05:11:21;93892.88;;;19.42;100.00
11049;BME280;5577;42.706;23.160;2022-08-16T05:14:07;93872.91;;;19.43;100.00
11049;BME280;5577;42.706;23.160;2022-08-16T05:16:51;93881.22;;;19.52;100.00
11049;BME280;5577;42.706;23.160;2022-08-16T05:19:35;93881.53;;;19.57;100.00
11049;BME280;5577;42.706;23.160;2022-08-16T05:22:19;93889.50;;;19.61;100.00
11049;BME280;5577;42.706;23.160;2022-08-16T05:25:08;93873.63;;;19.70;100.00
11049;BME280;5577;42.706;23.160;2022-08-16T05:27:53;93882.28;;;19.81;100.00
11049;BME280;5577;42.706;23.160;2022-08-16T05:30:38;93875.63;;;20.09;100.00
11049;BME280;5577;42.706;23.160;2022-08-16T05:33:22;93880.75;;;20.26;100.00
11049;BME280;5577;42.706;23.160;2022-08-16T05:36:09;93851.84;;;20.11;100.00
11049;BME280;5577;42.706;23.160;2022-08-16T05:38:53;93881.56;;;20.43;100.00
11049;BME280;5577;42.706;23.160;2022-08-16T05:41:37;93877.84;;;20.56;100.00
11049;BME280;5577;42.706;23.160;2022-08-16T05:44:22;93874.47;;;20.72;100.00
11049;BME280;5577;42.706;23.160;2022-08-16T05:47:06;93872.91;;;20.90;100.00
11049;BME280;5577;42.706;23.160;2022-08-16T05:49:50;93889.88;;;21.07;100.00
11049;BME280;5577;42.706;23.160;2022-08-16T05:52:34;93887.47;;;21.12;100.00
11049;BME280;5577;42.706;23.160;2022-08-16T05:55:18;93880.63;;;21.08;100.00
11049;BME280;5577;42.706;23.160;2022-08-16T05:58:02;93884.50;;;21.07;100.00
11049;BME280;5577;42.706;23.160;2022-08-16T06:00:47;93887.56;;;21.09;100.00
11049;BME280;5577;42.706;23.160;2022-08-16T06:03:31;93886.38;;;21.10;100.00
11049;BME280;5577;42.706;23.160;2022-08-16T06:06:15;93857.28;;;21.05;100.00
11049;BME280;5577;42.706;23.160;2022-08-16T06:08:59;93875.91;;;21.31;100.00
11049;BME280;5577;42.706;23.160;2022-08-16T06:11:44;93877.84;;;21.47;100.00
11049;BME280;5577;42.706;23.160;2022-08-16T06:14:29;93868.59;;;21.48;100.00
11049;BME280;5577;42.706;23.160;2022-08-16T06:17:13;93877.09;;;21.62;100.00
11049;BME280;5577;42.706;23.160;2022-08-16T06:19:58;93866.16;;;21.69;100.00
11049;BME280;5577;42.706;23.160;2022-08-16T06:22:42;93865.63;;;21.90;100.00
11049;BME280;5577;42.706;23.160;2022-08-16T06:25:28;93859.22;;;22.00;100.00
11049;BME280;5577;42.706;23.160;2022-08-16T06:28:12;93839.00;;;22.08;100.00
11049;BME280;5577;42.706;23.160;2022-08-16T06:30:56;93837.91;;;22.34;100.00
11049;BME280;5577;42.706;23.160;2022-08-16T06:33:41;93828.97;;;22.37;100.00
11049;BME280;5577;42.706;23.160;2022-08-16T06:36:25;93844.81;;;22.64;100.00
11049;BME280;5577;42.706;23.160;2022-08-16T06:39:10;93842.25;;;22.73;100.00
11049;BME280;5577;42.706;23.160;2022-08-16T06:41:54;93830.38;;;22.83;100.00
11049;BME280;5577;42.706;23.160;2022-08-16T06:44:38;93844.88;;;23.02;100.00
11049;BME280;5577;42.706;23.160;2022-08-16T06:47:22;93811.41;;;22.87;100.00
11049;BME280;5577;42.706;23.160;2022-08-16T06:50:07;93840.88;;;23.19;100.00
11049;BME280;5577;42.706;23.160;2022-08-16T06:52:51;93844.06;;;23.30;100.00
11049;BME280;5577;42.706;23.160;2022-08-16T06:55:35;93838.28;;;23.15;100.00
11049;BME280;5577;42.706;23.160;2022-08-16T06:58:19;93830.09;;;23.06;100.00
11049;BME280;5577;42.706;23.160;2022-08-16T07:01:03;93813.34;;;23.11;100.00
11049;BME280;5577;42.706;23.160;2022-08-16T07:03:48;93815.31;;;23.23;100.00
11049;BME280;5577;42.706;23.160;2022-08-16T07:06:32;93808.81;;;23.46;100.00
11049;BME280;5577;42.706;23.160;2022-08-16T07:09:16;93807.69;;;23.68;100.00
11049;BME280;5577;42.706;23.160;2022-08-16T07:12:00;93806.56;;;23.91;100.00
11049;BME280;5577;42.706;23.160;2022-08-16T07:14:44;93812.16;;;24.09;100.00
11049;BME280;5577;42.706;23.160;2022-08-16T07:17:30;93812.28;;;24.27;100.00
11049;BME280;5577;42.706;23.160;2022-08-16T07:20:16;93795.47;;;24.32;100.00
11049;BME280;5577;42.706;23.160;2022-08-16T07:23:03;93763.84;;;24.20;100.00
11049;BME280;5577;42.706;23.160;2022-08-16T07:25:50;93784.31;;;24.51;100.00
11049;BME280;5577;42.706;23.160;2022-08-16T07:28:34;93785.66;;;24.68;100.00
11049;BME280;5577;42.706;23.160;2022-08-16T07:31:19;93788.88;;;24.76;100.00
11049;BME280;5577;42.706;23.160;2022-08-16T07:34:04;93791.34;;;24.92;100.00
11049;BME280;5577;42.706;23.160;2022-08-16T07:36:47;93796.50;;;24.99;93.69
11049;BME280;5577;42.706;23.160;2022-08-16T07:39:31;93800.28;;;25.02;95.68
11049;BME280;5577;42.706;23.160;2022-08-16T07:42:15;93803.47;;;25.09;98.45
11049;BME280;5577;42.706;23.160;2022-08-16T07:44:59;93795.72;;;25.29;100.00
11049;BME280;5577;42.706;23.160;2022-08-16T07:47:43;93801.19;;;25.38;97.91
11049;BME280;5577;42.706;23.160;2022-08-16T07:50:27;93798.06;;;25.49;93.41
11049;BME280;5577;42.706;23.160;2022-08-16T07:53:12;93770.16;;;25.30;80.70
11049;BME280;5577;42.706;23.160;2022-08-16T07:55:57;93799.13;;;25.51;79.86
11049;BME280;5577;42.706;23.160;2022-08-16T07:58:44;93809.72;;;25.85;87.42
11049;BME280;5577;42.706;23.160;2022-08-16T08:01:28;93787.44;;;25.81;80.28
11049;BME280;5577;42.706;23.160;2022-08-16T08:04:13;93814.72;;;25.96;80.36
11049;BME280;5577;42.706;23.160;2022-08-16T08:06:58;93820.94;;;25.96;73.16
11049;BME280;5577;42.706;23.160;2022-08-16T08:09:42;93819.13;;;26.02;76.88
11049;BME280;5577;42.706;23.160;2022-08-16T08:12:27;93811.44;;;26.10;79.50
11049;BME280;5577;42.706;23.160;2022-08-16T08:15:10;93809.78;;;26.30;84.21
11049;BME280;5577;42.706;23.160;2022-08-16T08:17:56;93773.59;;;26.33;79.45
11049;BME280;5577;42.706;23.160;2022-08-16T08:20:40;93808.09;;;26.69;80.56
11049;BME280;5577;42.706;23.160;2022-08-16T08:23:27;93810.63;;;26.81;72.45
11049;BME280;5577;42.706;23.160;2022-08-16T08:26:11;93799.66;;;26.76;68.69
11049;BME280;5577;42.706;23.160;2022-08-16T08:28:55;93819.69;;;26.87;69.68
11049;BME280;5577;42.706;23.160;2022-08-16T08:31:39;93826.63;;;26.97;69.62
11049;BME280;5577;42.706;23.160;2022-08-16T08:34:25;93821.69;;;27.19;74.57
11049;BME280;5577;42.706;23.160;2022-08-16T08:37:10;93822.75;;;27.31;71.62
11049;BME280;5577;42.706;23.160;2022-08-16T08:39:54;93823.44;;;27.49;68.39
11049;BME280;5577;42.706;23.160;2022-08-16T08:42:38;93825.06;;;27.47;67.52
11049;BME280;5577;42.706;23.160;2022-08-16T08:45:28;93832.41;;;27.65;65.02
11049;BME280;5577;42.706;23.160;2022-08-16T08:48:12;93818.28;;;27.84;69.74
11049;BME280;5577;42.706;23.160;2022-08-16T08:50:57;93816.66;;;28.01;68.46
11049;BME280;5577;42.706;23.160;2022-08-16T08:53:41;93816.22;;;28.17;61.85
11049;BME280;5577;42.706;23.160;2022-08-16T08:56:25;93822.59;;;28.38;63.07
11049;BME280;5577;42.706;23.160;2022-08-16T08:59:13;93824.66;;;28.43;63.67
11049;BME280;5577;42.706;23.160;2022-08-16T09:01:57;93817.38;;;28.49;64.18
11049;BME280;5577;42.706;23.160;2022-08-16T09:04:43;93787.09;;;28.32;61.63
11049;BME280;5577;42.706;23.160;2022-08-16T09:07:27;93813.16;;;28.62;61.28
11049;BME280;5577;42.706;23.160;2022-08-16T09:10:11;93795.34;;;28.76;61.47
11049;BME280;5577;42.706;23.160;2022-08-16T09:12:57;93825.28;;;28.90;61.14
11049;BME280;5577;42.706;23.160;2022-08-16T09:15:41;93826.34;;;28.40;60.73
11049;BME280;5577;42.706;23.160;2022-08-16T09:18:27;93825.34;;;28.52;63.66
11049;BME280;5577;42.706;23.160;2022-08-16T09:21:12;93826.53;;;28.89;56.67
11049;BME280;5577;42.706;23.160;2022-08-16T09:23:57;93818.09;;;29.16;58.85
11049;BME280;5577;42.706;23.160;2022-08-16T09:26:40;93816.75;;;29.26;59.00
11049;BME280;5577;42.706;23.160;2022-08-16T09:29:24;93814.75;;;29.41;58.83
11049;BME280;5577;42.706;23.160;2022-08-16T09:32:08;93816.81;;;29.61;55.80
11049;BME280;5577;42.706;23.160;2022-08-16T09:34:53;93802.22;;;29.64;55.97
11049;BME280;5577;42.706;23.160;2022-08-16T09:37:36;93818.94;;;29.71;57.21
11049;BME280;5577;42.706;23.160;2022-08-16T09:40:20;93810.47;;;29.55;54.44
11049;BME280;5577;42.706;23.160;2022-08-16T09:43:04;93808.22;;;29.68;55.46
11049;BME280;5577;42.706;23.160;2022-08-16T09:45:48;93806.75;;;29.87;55.07
11049;BME280;5577;42.706;23.160;2022-08-16T09:48:36;93810.56;;;29.95;54.51
11049;BME280;5577;42.706;23.160;2022-08-16T09:51:24;93815.09;;;29.63;52.48
11049;BME280;5577;42.706;23.160;2022-08-16T09:54:09;93822.78;;;29.30;54.02
11049;BME280;5577;42.706;23.160;2022-08-16T09:56:53;93821.00;;;29.27;55.38
11049;BME280;5577;42.706;23.160;2022-08-16T09:59:37;93815.28;;;29.60;54.61
11049;BME280;5577;42.706;23.160;2022-08-16T10:02:21;93806.47;;;30.05;54.47
11049;BME280;5577;42.706;23.160;2022-08-16T10:05:07;93803.06;;;30.50;50.58
11049;BME280;5577;42.706;23.160;2022-08-16T10:07:51;93808.50;;;30.70;53.68
11049;BME280;5577;42.706;23.160;2022-08-16T10:10:36;93804.00;;;30.93;49.03
11049;BME280;5577;42.706;23.160;2022-08-16T10:13:23;93808.78;;;30.98;51.85
11049;BME280;5577;42.706;23.160;2022-08-16T10:16:07;93810.34;;;31.04;50.40
11049;BME280;5577;42.706;23.160;2022-08-16T10:18:52;93816.09;;;31.12;49.37
11049;BME280;5577;42.706;23.160;2022-08-16T10:21:36;93811.25;;;30.96;48.90
11049;BME280;5577;42.706;23.160;2022-08-16T10:24:21;93825.88;;;30.47;46.49
11049;BME280;5577;42.706;23.160;2022-08-16T10:27:05;93823.66;;;29.91;48.74
11049;BME280;5577;42.706;23.160;2022-08-16T10:29:49;93809.72;;;29.54;55.22
11049;BME280;5577;42.706;23.160;2022-08-16T10:32:33;93807.97;;;29.51;57.97
11049;BME280;5577;42.706;23.160;2022-08-16T10:35:18;93805.13;;;29.60;58.79
11049;BME280;5577;42.706;23.160;2022-08-16T10:38:02;93808.59;;;29.95;58.43
11049;BME280;5577;42.706;23.160;2022-08-16T10:40:46;93800.22;;;30.19;56.36
11049;BME280;5577;42.706;23.160;2022-08-16T10:43:30;93791.44;;;29.95;58.49
11049;BME280;5577;42.706;23.160;2022-08-16T10:46:15;93802.78;;;29.88;56.06
11049;BME280;5577;42.706;23.160;2022-08-16T10:48:59;93792.88;;;29.70;60.13
11049;BME280;5577;42.706;23.160;2022-08-16T10:51:44;93790.72;;;29.94;60.31
11049;BME280;5577;42.706;23.160;2022-08-16T10:54:28;93790.41;;;30.53;56.48
11049;BME280;5577;42.706;23.160;2022-08-16T10:57:13;93786.66;;;31.27;54.08
11049;BME280;5577;42.706;23.160;2022-08-16T10:59:57;93787.66;;;32.02;50.54
11049;BME280;5577;42.706;23.160;2022-08-16T11:02:42;93792.66;;;32.79;47.80
11049;BME280;5577;42.706;23.160;2022-08-16T11:05:27;93799.63;;;32.69;44.17
11049;BME280;5577;42.706;23.160;2022-08-16T11:08:12;93739.00;;;32.34;47.18
11049;BME280;5577;42.706;23.160;2022-08-16T11:10:57;93801.34;;;32.67;44.00
11049;BME280;5577;42.706;23.160;2022-08-16T11:13:41;93799.38;;;32.08;43.83
11049;BME280;5577;42.706;23.160;2022-08-16T11:16:27;93796.84;;;31.99;42.96
11049;BME280;5577;42.706;23.160;2022-08-16T11:19:14;93788.81;;;32.43;42.86
11049;BME280;5577;42.706;23.160;2022-08-16T11:21:58;93794.13;;;31.99;46.10
11049;BME280;5577;42.706;23.160;2022-08-16T11:24:43;93788.78;;;32.32;44.72
11049;BME280;5577;42.706;23.160;2022-08-16T11:27:27;93791.22;;;32.25;45.09
11049;BME280;5577;42.706;23.160;2022-08-16T11:30:12;93763.31;;;31.68;41.91
11049;BME280;5577;42.706;23.160;2022-08-16T11:32:57;93779.25;;;30.31;46.35
11049;BME280;5577;42.706;23.160;2022-08-16T11:35:43;93783.69;;;30.08;49.97
11049;BME280;5577;42.706;23.160;2022-08-16T11:38:27;93787.72;;;30.58;48.43
11049;BME280;5577;42.706;23.160;2022-08-16T11:41:12;93776.31;;;30.34;47.42
11049;BME280;5577;42.706;23.160;2022-08-16T11:43:56;93746.97;;;30.55;43.83
11049;BME280;5577;42.706;23.160;2022-08-16T11:46:40;93746.75;;;31.46;44.75
11049;BME280;5577;42.706;23.160;2022-08-16T11:49:24;93752.16;;;32.30;41.58
11049;BME280;5577;42.706;23.160;2022-08-16T11:52:08;93747.47;;;32.41;40.21
11049;BME280;5577;42.706;23.160;2022-08-16T11:54:52;93758.75;;;32.77;37.70
11049;BME280;5577;42.706;23.160;2022-08-16T11:57:36;93758.81;;;32.88;38.45
11049;BME280;5577;42.706;23.160;2022-08-16T12:00:21;93763.78;;;33.11;38.95
11049;BME280;5577;42.706;23.160;2022-08-16T12:03:06;93761.72;;;32.68;38.30
11049;BME280;5577;42.706;23.160;2022-08-16T12:05:49;93771.06;;;31.38;37.81
11049;BME280;5577;42.706;23.160;2022-08-16T12:08:34;93761.69;;;30.83;38.02
11049;BME280;5577;42.706;23.160;2022-08-16T12:11:18;93756.25;;;30.63;39.27
11049;BME280;5577;42.706;23.160;2022-08-16T12:14:03;93760.53;;;30.95;40.43
11049;BME280;5577;42.706;23.160;2022-08-16T12:16:48;93750.25;;;30.84;40.05
11049;BME280;5577;42.706;23.160;2022-08-16T12:19:32;93764.75;;;30.45;39.98
11049;BME280;5577;42.706;23.160;2022-08-16T12:22:17;93754.41;;;30.54;41.20
11049;BME280;5577;42.706;23.160;2022-08-16T12:25:07;93749.94;;;30.77;41.48
11049;BME280;5577;42.706;23.160;2022-08-16T12:27:52;93730.81;;;31.08;42.79
11049;BME280;5577;42.706;23.160;2022-08-16T12:30:40;93736.28;;;31.39;40.82
11049;BME280;5577;42.706;23.160;2022-08-16T12:33:24;93738.13;;;31.58;36.82
11049;BME280;5577;42.706;23.160;2022-08-16T12:36:09;93733.00;;;31.77;36.92
11049;BME280;5577;42.706;23.160;2022-08-16T12:38:53;93740.09;;;31.58;34.58
11049;BME280;5577;42.706;23.160;2022-08-16T12:41:38;93716.09;;;31.78;34.35
11049;BME280;5577;42.706;23.160;2022-08-16T12:44:22;93733.41;;;32.06;35.97
11049;BME280;5577;42.706;23.160;2022-08-16T12:47:07;93740.28;;;32.55;33.89
11049;BME280;5577;42.706;23.160;2022-08-16T12:50:10;93728.13;;;33.11;31.26
11049;BME280;5577;42.706;23.160;2022-08-16T12:52:54;93729.38;;;33.16;30.34
11049;BME280;5577;42.706;23.160;2022-08-16T12:55:39;93729.34;;;33.32;32.43
11049;BME280;5577;42.706;23.160;2022-08-16T12:58:24;93739.09;;;33.44;31.33
11049;BME280;5577;42.706;23.160;2022-08-16T13:01:10;93728.84;;;33.50;30.66
11049;BME280;5577;42.706;23.160;2022-08-16T13:03:55;93719.91;;;33.00;33.08
11049;BME280;5577;42.706;23.160;2022-08-16T13:06:41;93696.41;;;32.44;33.61
11049;BME280;5577;42.706;23.160;2022-08-16T13:09:25;93718.84;;;32.70;34.69
11049;BME280;5577;42.706;23.160;2022-08-16T13:12:12;93709.34;;;32.38;34.03
11049;BME280;5577;42.706;23.160;2022-08-16T13:15:05;93716.38;;;31.86;34.60
11049;BME280;5577;42.706;23.160;2022-08-16T13:17:51;93709.53;;;32.18;33.99
11049;BME280;5577;42.706;23.160;2022-08-16T13:20:36;93708.88;;;32.56;34.98
11049;BME280;5577;42.706;23.160;2022-08-16T13:23:20;93712.66;;;33.08;34.28
11049;BME280;5577;42.706;23.160;2022-08-16T13:26:07;93707.41;;;33.38;29.89
11049;BME280;5577;42.706;23.160;2022-08-16T13:28:51;93702.91;;;33.46;30.44
11049;BME280;5577;42.706;23.160;2022-08-16T13:31:36;93700.22;;;33.02;30.18
11049;BME280;5577;42.706;23.160;2022-08-16T13:34:20;93701.41;;;32.62;31.34
11049;BME280;5577;42.706;23.160;2022-08-16T13:37:05;93673.69;;;32.16;32.28
11049;BME280;5577;42.706;23.160;2022-08-16T13:39:49;93666.34;;;31.80;33.34
11049;BME280;5577;42.706;23.160;2022-08-16T13:42:33;93687.78;;;31.87;34.20
11049;BME280;5577;42.706;23.160;2022-08-16T13:45:17;93700.56;;;31.59;33.79
11049;BME280;5577;42.706;23.160;2022-08-16T13:48:02;93698.34;;;31.21;33.92
11049;BME280;5577;42.706;23.160;2022-08-16T13:50:48;93698.69;;;31.34;34.44
11049;BME280;5577;42.706;23.160;2022-08-16T13:53:32;93693.75;;;31.38;33.96
11049;BME280;5577;42.706;23.160;2022-08-16T13:56:16;93699.06;;;31.21;35.26
11049;BME280;5577;42.706;23.160;2022-08-16T13:59:03;93702.47;;;31.05;33.92
11049;BME280;5577;42.706;23.160;2022-08-16T14:01:49;93699.94;;;30.71;34.32
11049;BME280;5577;42.706;23.160;2022-08-16T14:04:35;93703.78;;;30.59;34.55
11049;BME280;5577;42.706;23.160;2022-08-16T14:07:20;93704.59;;;30.39;35.63
11049;BME280;5577;42.706;23.160;2022-08-16T14:10:05;93700.47;;;30.24;35.10
11049;BME280;5577;42.706;23.160;2022-08-16T14:12:50;93708.91;;;30.20;35.90
11049;BME280;5577;42.706;23.160;2022-08-16T14:15:35;93706.97;;;30.06;35.73
11049;BME280;5577;42.706;23.160;2022-08-16T14:18:19;93705.34;;;29.94;36.08
11049;BME280;5577;42.706;23.160;2022-08-16T14:21:03;93699.63;;;29.92;37.26
11049;BME280;5577;42.706;23.160;2022-08-16T14:23:47;93700.66;;;29.94;37.54
11049;BME280;5577;42.706;23.160;2022-08-16T14:26:32;93710.31;;;30.16;38.03
11049;BME280;5577;42.706;23.160;2022-08-16T14:29:16;93708.72;;;30.29;37.78
11049;BME280;5577;42.706;23.160;2022-08-16T14:32:04;93693.16;;;30.35;38.12